Time;durP1;ratioP1;P1;durP2;ratioP2;P2;SDS_P1;SDS_P2;PMS_P1;PMS_P2;Temp;Humidity;BMP_temperature;BMP_pressure;BME280_temperature;BME280_humidity;BME280_pressure;Samples;Min_cycle;Max_cycle;Signal;HPM_P1;HPM_P2
2021/10/08 00:00:52;;;;;;;2.03;1.50;;;;;;;8.90;100.00;102462.66;4944175;28;20217;-72
2021/10/08 00:03:17;;;;;;;1.83;1.60;;;;;;;8.93;100.00;102462.19;4953808;29;20835;-72
2021/10/08 00:05:43;;;;;;;2.10;1.50;;;;;;;8.86;100.00;102466.84;4930427;28;20218;-73
2021/10/08 00:08:11;;;;;;;2.10;1.90;;;;;;;8.84;100.00;102468.09;4927081;28;20187;-73
2021/10/08 00:10:39;;;;;;;4.73;1.80;;;;;;;8.80;100.00;102466.03;4976415;28;20234;-73
2021/10/08 00:13:07;;;;;;;1.83;1.73;;;;;;;8.79;100.00;102458.94;4980738;28;20226;-72
2021/10/08 00:15:32;;;;;;;2.00;1.90;;;;;;;8.81;100.00;102460.41;4936952;29;20218;-72
2021/10/08 00:17:58;;;;;;;2.10;1.80;;;;;;;8.71;100.00;102461.91;4953427;28;20191;-72
2021/10/08 00:20:23;;;;;;;2.00;1.80;;;;;;;8.78;100.00;102465.44;4955495;28;20187;-73
2021/10/08 00:22:49;;;;;;;1.60;1.50;;;;;;;8.70;100.00;102468.38;4956460;28;20209;-73
2021/10/08 00:25:17;;;;;;;2.70;1.70;;;;;;;8.63;100.00;102471.13;4923896;29;20200;-72
2021/10/08 00:27:45;;;;;;;2.93;1.80;;;;;;;8.70;100.00;102469.22;4921599;29;20190;-72
2021/10/08 00:30:10;;;;;;;1.70;1.60;;;;;;;8.54;100.00;102471.59;4952209;28;20222;-72
2021/10/08 00:32:36;;;;;;;2.33;1.80;;;;;;;8.68;100.00;102479.44;4924868;28;20253;-74
2021/10/08 00:35:02;;;;;;;2.07;1.87;;;;;;;8.64;100.00;102471.94;4959217;28;20191;-73
2021/10/08 00:37:28;;;;;;;3.67;2.00;;;;;;;8.67;100.00;102482.34;4940050;28;20221;-73
2021/10/08 00:39:54;;;;;;;1.83;1.67;;;;;;;8.63;100.00;102479.25;4951726;28;20248;-73
2021/10/08 00:42:20;;;;;;;3.60;1.90;;;;;;;8.57;100.00;102481.97;4936818;28;20831;-72
2021/10/08 00:44:45;;;;;;;1.50;1.40;;;;;;;8.54;100.00;102482.41;4926367;29;20183;-72
2021/10/08 00:47:13;;;;;;;1.87;1.63;;;;;;;8.48;100.00;102481.41;4920650;29;20739;-73
2021/10/08 00:49:42;;;;;;;1.83;1.73;;;;;;;8.37;100.00;102478.53;4937781;28;20292;-72
2021/10/08 00:52:12;;;;;;;1.93;1.50;;;;;;;8.31;100.00;102482.06;4944280;28;20225;-71
2021/10/08 00:54:38;;;;;;;2.67;1.63;;;;;;;8.31;100.00;102476.66;4956078;28;20187;-72
2021/10/08 00:57:03;;;;;;;1.90;1.60;;;;;;;8.27;100.00;102480.81;4939432;28;20289;-72
2021/10/08 00:59:30;;;;;;;2.93;1.80;;;;;;;8.33;100.00;102479.97;4946094;28;20188;-72
2021/10/08 01:01:55;;;;;;;2.73;1.73;;;;;;;8.19;100.00;102472.94;4958667;28;20233;-72
2021/10/08 01:04:22;;;;;;;2.17;1.70;;;;;;;8.24;100.00;102475.88;4936228;29;20202;-72
2021/10/08 01:06:48;;;;;;;2.87;1.87;;;;;;;8.18;100.00;102478.56;4944221;29;20727;-72
2021/10/08 01:09:14;;;;;;;3.20;1.60;;;;;;;8.19;100.00;102478.38;4909877;28;20211;-73
2021/10/08 01:11:41;;;;;;;2.03;1.70;;;;;;;8.12;100.00;102477.53;4991383;28;20675;-71
2021/10/08 01:14:09;;;;;;;2.30;1.40;;;;;;;8.08;100.00;102473.56;4925444;28;20205;-72
2021/10/08 01:16:41;;;;;;;1.50;1.40;;;;;;;7.99;100.00;102478.59;4906060;29;20658;-72
2021/10/08 01:19:07;;;;;;;1.60;1.50;;;;;;;8.03;100.00;102477.13;4921145;28;20179;-72
2021/10/08 01:21:36;;;;;;;2.20;1.97;;;;;;;8.01;100.00;102479.22;4959253;28;20239;-72
2021/10/08 01:24:05;;;;;;;1.67;1.57;;;;;;;7.95;100.00;102474.63;4943932;28;20554;-72
2021/10/08 01:26:30;;;;;;;2.40;1.80;;;;;;;7.86;100.00;102470.50;4955657;28;20233;-72
2021/10/08 01:28:56;;;;;;;2.73;1.60;;;;;;;7.71;100.00;102461.78;4938925;28;20214;-71
2021/10/08 01:31:24;;;;;;;2.00;1.80;;;;;;;7.81;100.00;102468.41;4937244;28;20237;-72
2021/10/08 01:33:55;;;;;;;1.77;1.67;;;;;;;7.89;100.00;102476.28;4939830;28;20187;-72
2021/10/08 01:36:24;;;;;;;2.43;1.60;;;;;;;7.80;100.00;102471.31;4959191;28;20230;-72
2021/10/08 01:38:58;;;;;;;1.73;1.60;;;;;;;7.86;100.00;102465.09;4951941;29;20183;-71
2021/10/08 01:41:25;;;;;;;3.43;1.70;;;;;;;7.80;100.00;102466.75;4974509;28;20256;-71
2021/10/08 01:43:55;;;;;;;2.33;1.80;;;;;;;7.78;100.00;102474.25;4940146;28;20731;-72
2021/10/08 01:46:21;;;;;;;2.13;1.73;;;;;;;7.69;100.00;102474.66;4949736;28;20260;-73
2021/10/08 01:48:46;;;;;;;4.40;1.77;;;;;;;7.59;100.00;102479.66;5114903;23;20667;-72
2021/10/08 01:51:14;;;;;;;2.13;1.80;;;;;;;7.63;100.00;102477.38;4967769;28;20284;-71
2021/10/08 01:53:46;;;;;;;2.00;1.77;;;;;;;7.61;100.00;102480.28;4958773;28;20180;-73
2021/10/08 01:56:12;;;;;;;1.70;1.60;;;;;;;7.57;100.00;102472.81;4976922;28;20671;-71
2021/10/08 01:58:54;;;;;;;2.47;1.70;;;;;;;7.54;100.00;102476.75;4979599;28;20182;-71
2021/10/08 02:01:23;;;;;;;1.93;1.60;;;;;;;7.47;100.00;102489.47;4961039;28;20224;-71
2021/10/08 02:03:52;;;;;;;2.33;1.50;;;;;;;7.46;100.00;102479.66;4962799;28;20690;-71
2021/10/08 02:06:22;;;;;;;1.53;1.43;;;;;;;7.41;100.00;102475.91;4993608;28;20216;-70
2021/10/08 02:08:50;;;;;;;2.90;1.77;;;;;;;7.40;100.00;102475.09;4993912;28;20274;-70
2021/10/08 02:11:18;;;;;;;2.23;1.63;;;;;;;7.36;100.00;102479.25;4982487;28;20221;-71
2021/10/08 02:13:46;;;;;;;1.70;1.60;;;;;;;7.30;100.00;102484.63;4961992;28;20591;-71
2021/10/08 02:16:20;;;;;;;3.07;1.63;;;;;;;7.32;100.00;102485.25;4984008;28;20259;-71
2021/10/08 02:18:55;;;;;;;1.90;1.70;;;;;;;7.28;100.00;102492.94;4980804;28;20192;-71
2021/10/08 02:21:25;;;;;;;3.10;1.80;;;;;;;7.21;100.00;102487.75;4967027;28;20225;-71
2021/10/08 02:23:53;;;;;;;2.40;1.73;;;;;;;7.19;100.00;102490.66;4959439;28;20265;-71
2021/10/08 02:26:19;;;;;;;2.13;1.70;;;;;;;7.20;100.00;102500.44;4966371;28;20220;-71
2021/10/08 02:28:47;;;;;;;2.87;2.03;;;;;;;7.18;100.00;102501.66;4993543;28;20185;-70
2021/10/08 02:31:16;;;;;;;2.00;1.80;;;;;;;7.14;100.00;102489.59;5004666;28;20710;-70
2021/10/08 02:33:47;;;;;;;2.30;2.00;;;;;;;7.09;100.00;102495.63;4977837;28;20185;-71
2021/10/08 02:36:14;;;;;;;2.10;1.90;;;;;;;7.00;100.00;102498.72;4980771;28;20228;-71
2021/10/08 02:38:40;;;;;;;3.53;1.90;;;;;;;7.03;100.00;102498.31;4993559;28;20181;-71
2021/10/08 02:41:06;;;;;;;3.27;2.00;;;;;;;6.98;100.00;102511.63;4992211;28;20212;-70
2021/10/08 02:43:32;;;;;;;2.37;1.77;;;;;;;7.02;100.00;102511.00;4997324;28;20570;-71
2021/10/08 02:45:57;;;;;;;2.10;1.90;;;;;;;6.94;100.00;102505.78;4996673;28;20212;-71
2021/10/08 02:48:25;;;;;;;2.83;1.97;;;;;;;6.95;100.00;102507.44;4981459;28;20195;-71
2021/10/08 02:50:52;;;;;;;1.70;1.60;;;;;;;7.02;100.00;102516.41;5012630;28;20216;-71
2021/10/08 02:53:17;;;;;;;2.07;1.80;;;;;;;7.01;100.00;102511.19;4997228;28;20213;-71
2021/10/08 02:55:45;;;;;;;2.77;1.70;;;;;;;6.97;100.00;102504.53;4964295;28;20225;-71
2021/10/08 02:58:14;;;;;;;2.17;1.80;;;;;;;6.88;100.00;102504.94;4965782;28;20204;-71
2021/10/08 03:00:42;;;;;;;1.77;1.50;;;;;;;6.84;100.00;102515.28;4996598;28;20355;-71
2021/10/08 03:03:12;;;;;;;2.60;1.70;;;;;;;6.78;100.00;102512.59;4962190;28;20202;-71
2021/10/08 03:05:39;;;;;;;2.33;1.90;;;;;;;6.68;100.00;102514.81;4960999;28;20702;-70
2021/10/08 03:08:08;;;;;;;1.97;1.80;;;;;;;6.63;100.00;102509.19;4959587;28;20182;-71
2021/10/08 03:10:36;;;;;;;3.73;1.80;;;;;;;6.67;100.00;102508.59;4977509;28;20232;-71
2021/10/08 03:13:04;;;;;;;3.13;1.80;;;;;;;6.65;100.00;102516.06;4964370;28;20206;-71
2021/10/08 03:15:31;;;;;;;2.37;1.90;;;;;;;6.67;100.00;102516.69;4995380;28;20221;-71
2021/10/08 03:17:57;;;;;;;4.60;2.10;;;;;;;6.67;100.00;102514.00;4996913;28;20632;-71
2021/10/08 03:20:23;;;;;;;2.57;1.97;;;;;;;6.62;100.00;102521.84;4991418;28;20263;-71
2021/10/08 03:22:49;;;;;;;2.70;1.80;;;;;;;6.61;100.00;102519.34;4980321;28;20205;-71
2021/10/08 03:25:21;;;;;;;2.37;1.60;;;;;;;6.65;100.00;102529.56;4996131;28;20315;-71
2021/10/08 03:27:47;;;;;;;2.40;2.20;;;;;;;6.61;100.00;102522.91;4989797;28;20559;-70
2021/10/08 03:30:14;;;;;;;3.60;2.17;;;;;;;6.71;100.00;102519.81;4979777;28;20208;-72
2021/10/08 03:32:40;;;;;;;1.90;1.60;;;;;;;6.70;100.00;102524.41;5013896;28;20292;-71
2021/10/08 03:35:06;;;;;;;3.50;2.10;;;;;;;6.63;100.00;102523.53;4974731;28;20280;-70
2021/10/08 03:40:12;;;;;;;2.13;1.70;;;;;;;6.56;100.00;102525.38;4997130;28;20665;-70
2021/10/08 03:42:37;;;;;;;3.40;1.87;;;;;;;6.56;100.00;102525.38;4976755;28;20307;-71
2021/10/08 03:45:12;;;;;;;2.07;1.80;;;;;;;6.56;100.00;102532.63;4991249;28;20188;-70
2021/10/08 03:50:41;;;;;;;3.57;1.90;;;;;;;6.49;100.00;102528.25;4980140;28;20247;-70
2021/10/08 03:53:09;;;;;;;1.80;1.70;;;;;;;6.53;100.00;102531.16;4947593;28;20222;-71
2021/10/08 03:55:37;;;;;;;3.80;2.03;;;;;;;6.44;100.00;102538.78;4966509;28;20575;-70
2021/10/08 03:58:04;;;;;;;1.87;1.63;;;;;;;6.38;100.00;102539.59;4979715;28;20193;-71
2021/10/08 04:00:32;;;;;;;2.73;2.03;;;;;;;6.12;100.00;102539.44;4973724;28;20262;-71
2021/10/08 04:03:07;;;;;;;3.23;2.40;;;;;;;6.17;100.00;102542.34;4963158;28;20205;-71
2021/10/08 04:05:33;;;;;;;3.00;1.93;;;;;;;6.18;100.00;102541.34;4957914;28;20309;-71
2021/10/08 04:08:01;;;;;;;1.83;1.73;;;;;;;6.40;100.00;102538.34;4959643;28;20192;-71
2021/10/08 04:10:30;;;;;;;2.43;1.80;;;;;;;6.39;100.00;102534.00;4993403;28;20236;-70
2021/10/08 04:12:58;;;;;;;1.90;1.80;;;;;;;6.38;100.00;102536.91;4943411;28;20340;-72
2021/10/08 04:15:25;;;;;;;3.10;2.10;;;;;;;6.45;100.00;102540.47;4975055;28;20256;-70
2021/10/08 04:17:52;;;;;;;3.10;2.10;;;;;;;6.48;100.00;102540.06;4991016;28;20729;-72
2021/10/08 04:20:20;;;;;;;3.87;2.20;;;;;;;6.52;100.00;102544.88;4992781;28;20169;-70
2021/10/08 04:22:51;;;;;;;3.00;1.87;;;;;;;6.44;100.00;102539.63;4966851;28;20213;-71
2021/10/08 04:25:19;;;;;;;2.77;1.77;;;;;;;6.43;100.00;102539.81;4979565;28;20181;-72
2021/10/08 04:27:45;;;;;;;1.70;1.50;;;;;;;6.42;100.00;102544.38;4974851;28;20178;-70
2021/10/08 04:30:13;;;;;;;2.50;1.47;;;;;;;6.30;100.00;102545.13;4959231;28;20691;-72
2021/10/08 04:32:41;;;;;;;1.73;1.60;;;;;;;6.28;100.00;102545.34;4979024;28;20217;-72
2021/10/08 04:35:08;;;;;;;2.00;1.80;;;;;;;6.27;100.00;102548.25;4978920;28;20181;-71
2021/10/08 04:37:34;;;;;;;1.90;1.60;;;;;;;6.30;100.00;102542.44;4977505;28;20208;-71
2021/10/08 04:40:00;;;;;;;3.53;1.90;;;;;;;6.34;100.00;102547.25;4978094;28;20187;-72
2021/10/08 04:42:27;;;;;;;2.00;1.80;;;;;;;6.32;100.00;102541.22;4969450;28;20311;-72
2021/10/08 04:44:56;;;;;;;1.83;1.70;;;;;;;6.11;100.00;102536.94;4979580;28;20188;-73
2021/10/08 04:47:22;;;;;;;2.73;1.80;;;;;;;6.09;100.00;102537.13;4978104;28;20225;-71
2021/10/08 04:49:53;;;;;;;2.83;1.80;;;;;;;6.29;100.00;102535.38;4979134;28;20201;-72
2021/10/08 04:52:21;;;;;;;2.27;1.70;;;;;;;6.29;100.00;102538.09;5012197;28;20725;-71
2021/10/08 04:54:50;;;;;;;2.30;1.80;;;;;;;6.26;100.00;102541.16;4994562;28;20276;-72
2021/10/08 04:57:16;;;;;;;2.03;1.77;;;;;;;6.20;100.00;102532.00;5010488;28;20224;-72
2021/10/08 04:59:45;;;;;;;4.40;1.70;;;;;;;6.16;100.00;102540.72;4962778;28;20587;-71
2021/10/08 05:02:16;;;;;;;2.27;1.57;;;;;;;6.06;100.00;102545.59;4958748;28;20372;-72
2021/10/08 05:04:44;;;;;;;1.70;1.60;;;;;;;6.12;100.00;102539.44;4986928;28;20192;-71
2021/10/08 05:07:10;;;;;;;3.10;2.00;;;;;;;6.05;100.00;102554.72;4962882;28;20224;-73
2021/10/08 05:09:36;;;;;;;2.47;1.90;;;;;;;6.03;100.00;102556.81;4980778;28;20638;-72
2021/10/08 05:12:02;;;;;;;2.93;2.10;;;;;;;5.92;100.00;102554.63;4962576;28;20642;-71
2021/10/08 05:14:30;;;;;;;3.27;2.00;;;;;;;5.92;100.00;102565.44;4980091;28;20670;-70
2021/10/08 05:16:56;;;;;;;2.67;2.00;;;;;;;5.96;100.00;102561.31;4977688;28;20910;-70
2021/10/08 05:19:26;;;;;;;2.30;1.90;;;;;;;5.89;100.00;102559.59;4978466;28;20184;-71
2021/10/08 05:22:02;;;;;;;2.23;1.80;;;;;;;5.91;100.00;102563.75;4959083;28;20260;-70
2021/10/08 05:24:29;;;;;;;2.27;2.07;;;;;;;5.74;100.00;102556.97;4978142;28;20293;-72
2021/10/08 05:26:56;;;;;;;3.70;2.00;;;;;;;5.81;100.00;102562.44;4975314;28;20213;-71
2021/10/08 05:29:24;;;;;;;3.03;2.07;;;;;;;5.83;100.00;102566.59;4967944;28;20205;-71
2021/10/08 05:31:52;;;;;;;3.07;2.03;;;;;;;5.80;100.00;102566.97;4978321;28;20236;-71
2021/10/08 05:34:19;;;;;;;4.17;1.90;;;;;;;5.81;100.00;102565.94;4978346;28;20639;-72
2021/10/08 05:36:49;;;;;;;2.90;2.13;;;;;;;5.80;100.00;102566.97;4991861;28;20723;-70
2021/10/08 05:39:17;;;;;;;2.50;2.20;;;;;;;5.90;100.00;102567.50;4965290;28;20213;-70
2021/10/08 05:41:43;;;;;;;3.53;2.43;;;;;;;5.90;100.00;102570.19;4972732;28;20331;-70
2021/10/08 05:44:08;;;;;;;3.47;2.30;;;;;;;5.89;100.00;102571.19;4947655;28;20239;-70
2021/10/08 05:46:37;;;;;;;3.67;1.97;;;;;;;5.99;100.00;102569.00;4975712;28;20275;-70
2021/10/08 05:49:08;;;;;;;2.77;1.87;;;;;;;5.96;100.00;102566.69;4958281;28;20205;-70
2021/10/08 05:51:34;;;;;;;3.63;1.90;;;;;;;5.94;100.00;102576.03;4941258;28;20299;-70
2021/10/08 05:54:02;;;;;;;3.40;1.63;;;;;;;5.84;100.00;102579.06;4990167;28;20199;-69
2021/10/08 05:56:28;;;;;;;2.13;1.83;;;;;;;5.82;100.00;102575.72;4976321;28;20224;-72
2021/10/08 05:58:54;;;;;;;2.80;1.77;;;;;;;5.82;100.00;102575.72;4977531;28;20192;-70
2021/10/08 06:01:20;;;;;;;2.13;1.90;;;;;;;5.70;100.00;102586.34;4993811;28;20604;-70
2021/10/08 06:03:46;;;;;;;3.27;1.80;;;;;;;5.73;100.00;102583.28;5010650;28;20235;-69
2021/10/08 06:06:11;;;;;;;2.60;1.90;;;;;;;5.73;100.00;102592.19;4973860;28;20232;-70
2021/10/08 06:08:37;;;;;;;3.53;2.03;;;;;;;5.74;100.00;102587.66;4942587;28;20190;-70
2021/10/08 06:11:03;;;;;;;3.13;1.80;;;;;;;5.72;100.00;102585.13;4941943;28;20229;-70
2021/10/08 06:13:32;;;;;;;2.47;1.80;;;;;;;5.81;100.00;102590.22;4957575;28;20196;-70
2021/10/08 06:16:02;;;;;;;2.70;1.60;;;;;;;5.83;100.00;102588.16;4992907;28;20256;-70
2021/10/08 06:18:30;;;;;;;2.40;2.00;;;;;;;5.99;100.00;102595.97;4977933;28;20185;-70
2021/10/08 06:20:58;;;;;;;2.90;1.90;;;;;;;5.97;100.00;102599.88;4958178;28;20226;-70
2021/10/08 06:23:26;;;;;;;2.60;1.80;;;;;;;5.90;100.00;102599.84;4958661;28;20670;-69
2021/10/08 06:25:55;;;;;;;2.23;2.00;;;;;;;5.85;100.00;102599.59;4973980;28;20283;-71
2021/10/08 06:28:23;;;;;;;3.33;2.00;;;;;;;5.91;100.00;102604.19;4974268;28;20185;-70
2021/10/08 06:30:51;;;;;;;2.57;1.83;;;;;;;5.92;100.00;102605.06;4986792;28;20272;-70
2021/10/08 06:33:17;;;;;;;4.50;2.23;;;;;;;5.97;100.00;102608.84;4993892;28;20244;-71
2021/10/08 06:35:46;;;;;;;4.90;2.20;;;;;;;5.97;100.00;102603.44;4984991;28;20228;-70
2021/10/08 06:38:14;;;;;;;3.00;2.10;;;;;;;6.03;100.00;102605.34;4977643;28;20183;-70
2021/10/08 06:40:40;;;;;;;3.73;2.10;;;;;;;6.19;100.00;102616.69;4983841;28;20229;-70
2021/10/08 06:43:09;;;;;;;2.60;2.00;;;;;;;6.21;100.00;102613.78;4969221;28;20210;-70
2021/10/08 06:45:39;;;;;;;3.07;2.10;;;;;;;6.30;100.00;102623.38;4950090;28;20722;-70
2021/10/08 06:48:07;;;;;;;4.97;2.10;;;;;;;6.53;100.00;102617.53;4958032;28;20192;-70
2021/10/08 06:50:35;;;;;;;2.77;2.30;;;;;;;6.64;100.00;102622.38;4987309;28;20235;-71
2021/10/08 06:53:02;;;;;;;4.43;1.90;;;;;;;6.85;100.00;102625.00;4978403;28;20197;-70
2021/10/08 06:55:29;;;;;;;2.80;2.20;;;;;;;6.92;100.00;102621.31;4989118;28;20216;-72
2021/10/08 06:57:58;;;;;;;4.73;2.30;;;;;;;7.04;100.00;102613.44;4961516;28;20180;-70
2021/10/08 07:00:26;;;;;;;4.13;2.00;;;;;;;7.18;100.00;102615.16;4944747;28;20178;-70
2021/10/08 07:02:55;;;;;;;4.10;2.37;;;;;;;7.31;100.00;102622.28;4941791;28;20205;-71
2021/10/08 07:05:24;;;;;;;2.30;2.10;;;;;;;7.41;100.00;102616.50;4963902;28;20216;-71
2021/10/08 07:07:55;;;;;;;2.47;2.27;;;;;;;7.55;100.00;102624.44;4993820;28;20185;-71
2021/10/08 07:10:24;;;;;;;2.47;2.20;;;;;;;7.75;100.00;102620.72;4992237;28;20205;-71
2021/10/08 07:12:49;;;;;;;4.47;2.30;;;;;;;7.94;100.00;102627.19;4957465;28;20210;-71
2021/10/08 07:15:20;;;;;;;4.03;2.27;;;;;;;8.02;100.00;102632.41;4957579;28;20240;-72
2021/10/08 07:17:49;;;;;;;2.73;2.50;;;;;;;8.03;100.00;102628.66;4991401;28;20205;-71
2021/10/08 07:20:24;;;;;;;2.53;2.33;;;;;;;8.23;100.00;102625.78;4977234;28;20231;-71
2021/10/08 07:22:50;;;;;;;6.63;2.40;;;;;;;8.46;100.00;102626.16;4993638;28;20212;-72
2021/10/08 07:25:18;;;;;;;4.03;2.43;;;;;;;8.61;100.00;102629.50;5009978;28;20635;-72
2021/10/08 07:27:46;;;;;;;3.60;2.57;;;;;;;8.73;100.00;102633.19;4979007;28;20185;-71
2021/10/08 07:30:12;;;;;;;5.83;3.07;;;;;;;8.86;100.00;102626.72;4980615;28;20341;-70
2021/10/08 07:32:38;;;;;;;3.53;2.40;;;;;;;8.99;100.00;102629.38;4960624;28;20205;-71
2021/10/08 07:35:07;;;;;;;4.20;2.90;;;;;;;9.22;100.00;102624.28;4961259;28;20185;-69
2021/10/08 07:37:33;;;;;;;5.40;3.13;;;;;;;9.38;100.00;102624.63;4961407;28;20193;-72
2021/10/08 07:39:58;;;;;;;5.97;2.80;;;;;;;9.57;100.00;102624.50;4961128;28;20174;-70
2021/10/08 07:42:24;;;;;;;3.50;3.20;;;;;;;9.70;100.00;102613.56;4984131;28;20225;-71
2021/10/08 07:44:50;;;;;;;2.90;2.60;;;;;;;9.87;100.00;102620.16;4963844;28;20189;-71
2021/10/08 07:47:18;;;;;;;6.27;2.90;;;;;;;9.97;100.00;102628.66;4976298;28;20221;-70
2021/10/08 07:49:46;;;;;;;4.47;2.80;;;;;;;10.01;100.00;102627.97;4961350;28;20256;-71
2021/10/08 07:52:12;;;;;;;8.60;3.63;;;;;;;10.19;100.00;102624.50;4987198;28;20661;-71
2021/10/08 07:54:38;;;;;;;4.13;3.07;;;;;;;10.37;100.00;102621.84;4997732;28;20195;-71
2021/10/08 07:57:08;;;;;;;4.70;2.90;;;;;;;10.60;100.00;102618.25;5004265;28;20706;-71
2021/10/08 07:59:34;;;;;;;3.47;3.17;;;;;;;10.80;100.00;102618.88;4980878;28;20174;-70
2021/10/08 08:02:00;;;;;;;4.10;3.70;;;;;;;10.99;100.00;102629.53;4977002;28;20233;-71
2021/10/08 08:04:28;;;;;;;6.77;4.23;;;;;;;11.18;100.00;102623.84;4961254;28;20571;-71
2021/10/08 08:06:53;;;;;;;6.87;3.87;;;;;;;11.35;100.00;102621.34;4969470;28;20231;-71
2021/10/08 08:09:19;;;;;;;6.03;4.37;;;;;;;11.50;100.00;102622.66;5013727;28;20213;-70
2021/10/08 08:11:44;;;;;;;5.53;4.73;;;;;;;11.72;100.00;102621.91;4957786;28;20217;-71
2021/10/08 08:14:10;;;;;;;6.80;5.00;;;;;;;11.97;100.00;102625.28;4979499;28;20189;-71
2021/10/08 08:16:40;;;;;;;7.07;5.57;;;;;;;12.20;100.00;102625.34;4980774;28;20220;-71
2021/10/08 08:19:05;;;;;;;7.90;5.73;;;;;;;12.36;100.00;102620.00;5013473;28;20208;-71
2021/10/08 08:21:33;;;;;;;7.13;5.43;;;;;;;12.57;100.00;102630.34;4991308;28;20217;-71
2021/10/08 08:23:59;;;;;;;6.17;4.93;;;;;;;12.70;100.00;102623.56;4993665;28;20668;-71
2021/10/08 08:26:24;;;;;;;7.80;5.00;;;;;;;12.94;100.00;102622.50;4977683;28;20232;-71
2021/10/08 08:28:55;;;;;;;5.43;4.57;;;;;;;13.14;100.00;102625.66;4996037;28;20209;-71
2021/10/08 08:31:23;;;;;;;4.73;4.10;;;;;;;13.34;100.00;102621.44;4995887;28;20229;-70
2021/10/08 08:33:50;;;;;;;4.57;4.17;;;;;;;13.38;100.00;102617.16;4995876;28;20199;-71
2021/10/08 08:36:16;;;;;;;6.23;3.87;;;;;;;13.69;100.00;102624.88;4994849;28;20687;-70
2021/10/08 08:38:44;;;;;;;4.40;4.00;;;;;;;13.90;100.00;102627.75;5011135;28;20211;-72
2021/10/08 08:41:10;;;;;;;5.80;3.90;;;;;;;14.09;100.00;102627.28;4979383;28;20645;-72
2021/10/08 08:43:35;;;;;;;5.47;4.40;;;;;;;14.23;100.00;102627.78;4996841;28;20181;-70
2021/10/08 08:46:01;;;;;;;5.33;4.30;;;;;;;14.45;100.00;102622.16;4994442;28;20221;-69
2021/10/08 08:48:29;;;;;;;6.70;4.50;;;;;;;14.41;100.00;102618.28;5008154;28;20189;-71
2021/10/08 08:50:55;;;;;;;6.17;4.60;;;;;;;14.68;100.00;102627.44;5011226;28;20279;-70
2021/10/08 08:53:23;;;;;;;5.03;4.50;;;;;;;14.78;100.00;102619.34;4983613;28;20701;-71
2021/10/08 08:55:49;;;;;;;7.10;4.50;;;;;;;14.97;100.00;102616.09;4994886;28;20575;-71
2021/10/08 08:58:15;;;;;;;5.00;4.50;;;;;;;15.08;100.00;102617.88;4988618;28;20193;-71
2021/10/08 09:00:41;;;;;;;5.70;5.10;;;;;;;15.18;100.00;102607.94;4995549;28;20283;-71
2021/10/08 09:03:10;;;;;;;6.87;4.80;;;;;;;15.01;100.00;102612.59;5004267;28;20310;-71
2021/10/08 09:05:37;;;;;;;5.87;5.27;;;;;;;15.17;100.00;102606.25;4979849;28;20228;-72
2021/10/08 09:08:07;;;;;;;5.83;5.27;;;;;;;15.12;100.00;102608.91;4969807;28;20187;-72
2021/10/08 09:10:37;;;;;;;5.13;4.63;;;;;;;15.22;100.00;102611.81;5011668;28;20917;-72
2021/10/08 09:13:08;;;;;;;6.07;4.70;;;;;;;15.21;100.00;102607.41;4970282;28;20204;-71
2021/10/08 09:15:48;;;;;;;5.27;4.60;;;;;;;15.38;100.00;102608.16;4962194;28;20625;-72
2021/10/08 09:18:14;;;;;;;6.63;4.50;;;;;;;15.46;100.00;102613.19;4959197;28;20734;-72
2021/10/08 09:20:58;;;;;;;4.60;4.20;;;;;;;15.70;100.00;102612.66;4974990;28;20287;-72
2021/10/08 09:23:35;;;;;;;6.20;3.97;;;;;;;15.77;100.00;102608.59;4945435;28;20205;-72
2021/10/08 09:26:01;;;;;;;5.27;3.83;;;;;;;15.78;100.00;102604.75;4958279;28;20225;-72
2021/10/08 09:28:26;;;;;;;6.47;4.10;;;;;;;15.79;100.00;102611.91;4959030;28;20192;-71
2021/10/08 09:30:56;;;;;;;4.05;3.75;;;;;;;16.11;100.00;102603.72;4974711;28;20329;-72
2021/10/08 09:33:22;;;;;;;3.75;3.45;;;;;;;16.25;100.00;102598.38;4984375;28;20241;-70
2021/10/08 09:35:50;;;;;;;3.40;3.10;;;;;;;16.48;100.00;102599.94;4961330;28;20228;-71
2021/10/08 09:38:16;;;;;;;4.82;3.40;;;;;;;16.44;100.00;102604.28;4986696;28;20602;-72
2021/10/08 09:40:52;;;;;;;3.95;3.20;;;;;;;16.47;100.00;102601.03;4942681;28;20320;-71
2021/10/08 09:43:26;;;;;;;5.13;3.00;;;;;;;16.65;100.00;102607.75;4961841;28;20208;-72
2021/10/08 09:45:58;;;;;;;4.43;3.00;;;;;;;16.76;100.00;102598.50;4999266;28;20702;-71
2021/10/08 09:48:26;;;;;;;4.20;2.67;;;;;;;16.72;100.00;102600.13;4993798;28;20242;-71
2021/10/08 09:51:12;;;;;;;4.05;2.60;;;;;;;16.73;100.00;102596.25;4977355;28;20695;-71
2021/10/08 09:53:58;;;;;;;2.72;2.47;;;;;;;16.84;100.00;102594.41;4967034;28;20208;-73
2021/10/08 09:56:40;;;;;;;3.10;2.80;;;;;;;16.87;100.00;102599.34;4997957;28;20247;-77
2021/10/08 09:59:07;;;;;;;3.72;3.00;;;;;;;16.96;100.00;102598.59;4998629;28;20192;-72
2021/10/08 10:01:36;;;;;;;3.40;3.10;;;;;;;16.86;100.00;102604.03;4977597;28;20278;-70
2021/10/08 10:04:04;;;;;;;3.42;3.00;;;;;;;16.66;100.00;102609.38;4985143;28;20219;-70
2021/10/08 10:06:30;;;;;;;3.40;3.03;;;;;;;16.62;100.00;102613.75;4977327;28;20717;-72
2021/10/08 10:08:58;;;;;;;3.55;3.25;;;;;;;16.68;100.00;102609.13;5003971;28;20221;-70
2021/10/08 10:11:25;;;;;;;3.90;3.50;;;;;;;16.74;100.00;102599.81;4993260;28;20229;-70
2021/10/08 10:13:57;;;;;;;3.83;3.20;;;;;;;16.83;100.00;102606.47;4979805;28;20561;-70
2021/10/08 10:16:23;;;;;;;3.75;3.33;;;;;;;16.96;100.00;102599.41;4962086;28;20255;-71
2021/10/08 10:18:54;;;;;;;3.95;3.10;;;;;;;17.21;100.00;102601.50;4971665;28;20227;-71
2021/10/08 10:21:23;;;;;;;3.58;3.00;;;;;;;17.52;100.00;102593.91;4975047;28;20213;-72
2021/10/08 10:23:56;;;;;;;4.05;2.97;;;;;;;17.43;100.00;102592.75;4940763;28;20181;-72
2021/10/08 10:26:23;;;;;;;6.03;3.00;;;;;;;17.18;100.00;102602.88;4959668;28;20299;-71
2021/10/08 10:28:51;;;;;;;4.10;3.20;;;;;;;17.38;100.00;102591.94;4958200;28;20190;-74
2021/10/08 10:31:19;;;;;;;3.10;2.78;;;;;;;17.47;100.00;102591.16;4973627;28;20233;-73
2021/10/08 10:33:47;;;;;;;3.40;3.10;;;;;;;17.87;100.00;102593.97;4963630;28;20199;-72
2021/10/08 10:36:55;;;;;;;4.15;3.17;;;;;;;17.91;100.00;102597.81;4992494;28;20286;-72
2021/10/08 10:39:24;;;;;;;3.42;3.13;;;;;;;17.81;100.00;102595.06;4917273;29;20187;-71
2021/10/08 10:42:02;;;;;;;6.90;3.50;;;;;;;17.82;100.00;102604.97;4918946;28;20239;-72
2021/10/08 10:44:35;;;;;;;4.15;3.20;;;;;;;17.94;100.00;102598.09;4975321;28;20197;-72
2021/10/08 10:47:33;;;;;;;5.00;3.22;;;;;;;18.02;100.00;102591.22;4992765;28;20235;-72
2021/10/08 10:52:47;;;;;;;3.70;3.40;;;;;;;17.89;100.00;102600.88;4993642;28;20772;-72
2021/10/08 10:55:15;;;;;;;4.25;3.67;;;;;;;17.73;100.00;102596.44;5010716;28;20224;-72
2021/10/08 10:57:41;;;;;;;4.43;3.45;;;;;;;17.70;100.00;102589.84;4977164;28;20181;-71
2021/10/08 11:00:19;;;;;;;6.53;4.00;;;;;;;17.50;100.00;102596.09;5002268;28;20590;-74
2021/10/08 11:02:48;;;;;;;5.35;3.97;;;;;;;17.69;100.00;102604.66;5011273;28;20263;-71
2021/10/08 11:05:23;;;;;;;4.60;4.10;;;;;;;17.76;100.00;102584.06;5003437;28;20173;-71
2021/10/08 11:08:18;;;;;;;4.75;4.25;;;;;;;18.42;100.00;102590.16;4984881;28;20243;-71
2021/10/08 11:10:59;;;;;;;5.70;3.92;;;;;;;18.16;100.00;102585.78;4954498;28;20591;-76
2021/10/08 11:13:34;;;;;;;4.90;4.20;;;;;;;18.38;100.00;102583.56;4975482;28;20214;-71
2021/10/08 11:16:08;;;;;;;5.70;5.15;;;;;;;18.69;100.00;102582.41;4978639;28;20300;-71
2021/10/08 11:18:49;;;;;;;7.25;5.50;;;;;;;18.51;100.00;102583.84;4965283;28;20211;-71
2021/10/08 11:21:28;;;;;;;5.75;5.07;;;;;;;18.59;100.00;102585.19;4976716;28;20249;-71
2021/10/08 11:23:59;;;;;;;5.57;5.07;;;;;;;18.54;100.00;102574.19;4994718;28;20265;-71
2021/10/08 11:26:28;;;;;;;5.78;4.70;;;;;;;18.52;100.00;102579.97;4976866;28;20233;-71
2021/10/08 11:28:57;;;;;;;6.05;5.43;;;;;;;18.63;100.00;102580.78;4992654;28;20849;-72
2021/10/08 11:31:25;;;;;;;7.32;5.20;;;;;;;18.57;100.00;102570.84;4979619;28;20303;-71
2021/10/08 11:33:55;;;;;;;6.05;5.07;;;;;;;18.78;100.00;102566.97;4996971;28;20185;-71
2021/10/08 11:36:30;;;;;;;5.65;5.07;;;;;;;18.72;100.00;102568.09;4952700;28;20217;-72